sensor_id;sensor_type;location;lat;lon;timestamp;temperature;humidity
11079;DHT22;5592;49.234;7.268;2023-06-14T00:01:50;9.80;99.90
11079;DHT22;5592;49.234;7.268;2023-06-14T00:04:16;9.80;99.90
11079;DHT22;5592;49.234;7.268;2023-06-14T00:06:42;9.80;99.90
11079;DHT22;5592;49.234;7.268;2023-06-14T00:09:11;9.70;99.90
11079;DHT22;5592;49.234;7.268;2023-06-14T00:11:38;9.70;99.90
11079;DHT22;5592;49.234;7.268;2023-06-14T00:14:04;9.60;99.90
11079;DHT22;5592;49.234;7.268;2023-06-14T00:16:30;9.60;99.90
11079;DHT22;5592;49.234;7.268;2023-06-14T00:18:55;9.50;99.90
11079;DHT22;5592;49.234;7.268;2023-06-14T00:21:21;9.50;99.90
11079;DHT22;5592;49.234;7.268;2023-06-14T00:23:50;9.50;99.90
11079;DHT22;5592;49.234;7.268;2023-06-14T00:26:15;9.60;99.90
11079;DHT22;5592;49.234;7.268;2023-06-14T00:28:41;9.60;99.90
11079;DHT22;5592;49.234;7.268;2023-06-14T00:31:07;9.50;99.90
11079;DHT22;5592;49.234;7.268;2023-06-14T00:33:32;9.50;99.90
11079;DHT22;5592;49.234;7.268;2023-06-14T00:35:58;9.40;99.90
11079;DHT22;5592;49.234;7.268;2023-06-14T00:38:23;9.40;99.90
11079;DHT22;5592;49.234;7.268;2023-06-14T00:40:49;9.30;99.90
11079;DHT22;5592;49.234;7.268;2023-06-14T00:43:15;9.20;99.90
11079;DHT22;5592;49.234;7.268;2023-06-14T00:45:40;9.20;99.90
11079;DHT22;5592;49.234;7.268;2023-06-14T00:48:06;9.20;99.90
11079;DHT22;5592;49.234;7.268;2023-06-14T00:50:35;9.10;99.90
11079;DHT22;5592;49.234;7.268;2023-06-14T00:53:01;9.00;99.90
11079;DHT22;5592;49.234;7.268;2023-06-14T00:55:28;9.00;99.90
11079;DHT22;5592;49.234;7.268;2023-06-14T00:57:55;9.00;99.90
11079;DHT22;5592;49.234;7.268;2023-06-14T01:00:21;9.10;99.90
11079;DHT22;5592;49.234;7.268;2023-06-14T01:02:47;9.20;99.90
11079;DHT22;5592;49.234;7.268;2023-06-14T01:05:14;9.20;99.90
11079;DHT22;5592;49.234;7.268;2023-06-14T01:10:47;9.30;99.90
11079;DHT22;5592;49.234;7.268;2023-06-14T01:13:39;9.20;99.90
11079;DHT22;5592;49.234;7.268;2023-06-14T01:16:06;9.20;99.90
11079;DHT22;5592;49.234;7.268;2023-06-14T01:18:34;9.20;99.90
11079;DHT22;5592;49.234;7.268;2023-06-14T01:21:00;9.10;99.90
11079;DHT22;5592;49.234;7.268;2023-06-14T01:23:31;9.00;99.90
11079;DHT22;5592;49.234;7.268;2023-06-14T01:25:59;8.90;99.90
11079;DHT22;5592;49.234;7.268;2023-06-14T01:28:27;8.90;99.90
11079;DHT22;5592;49.234;7.268;2023-06-14T01:31:00;8.80;99.90
11079;DHT22;5592;49.234;7.268;2023-06-14T01:33:29;8.80;99.90
11079;DHT22;5592;49.234;7.268;2023-06-14T01:35:56;8.70;99.90
11079;DHT22;5592;49.234;7.268;2023-06-14T01:38:24;8.70;99.90
11079;DHT22;5592;49.234;7.268;2023-06-14T01:40:51;8.60;99.90
11079;DHT22;5592;49.234;7.268;2023-06-14T01:43:18;8.60;99.90
11079;DHT22;5592;49.234;7.268;2023-06-14T01:45:47;8.60;99.90
11079;DHT22;5592;49.234;7.268;2023-06-14T01:48:14;8.70;99.90
11079;DHT22;5592;49.234;7.268;2023-06-14T01:50:41;8.60;99.90
11079;DHT22;5592;49.234;7.268;2023-06-14T01:53:10;8.60;99.90
11079;DHT22;5592;49.234;7.268;2023-06-14T01:55:36;8.50;99.90
11079;DHT22;5592;49.234;7.268;2023-06-14T01:58:09;8.40;99.90
11079;DHT22;5592;49.234;7.268;2023-06-14T02:00:35;8.40;99.90
11079;DHT22;5592;49.234;7.268;2023-06-14T02:03:01;8.30;99.90
11079;DHT22;5592;49.234;7.268;2023-06-14T02:05:27;8.30;99.90
11079;DHT22;5592;49.234;7.268;2023-06-14T02:07:53;8.30;99.90
11079;DHT22;5592;49.234;7.268;2023-06-14T02:10:19;8.30;99.90
11079;DHT22;5592;49.234;7.268;2023-06-14T02:12:44;8.30;99.90
11079;DHT22;5592;49.234;7.268;2023-06-14T02:15:10;8.20;99.90
11079;DHT22;5592;49.234;7.268;2023-06-14T02:17:45;8.20;99.90
11079;DHT22;5592;49.234;7.268;2023-06-14T02:20:12;8.10;99.90
11079;DHT22;5592;49.234;7.268;2023-06-14T02:22:38;8.10;99.90
11079;DHT22;5592;49.234;7.268;2023-06-14T02:25:04;8.10;99.90
11079;DHT22;5592;49.234;7.268;2023-06-14T02:27:29;8.10;99.90
11079;DHT22;5592;49.234;7.268;2023-06-14T02:29:55;8.10;99.90
11079;DHT22;5592;49.234;7.268;2023-06-14T02:32:20;8.10;99.90
11079;DHT22;5592;49.234;7.268;2023-06-14T02:34:46;8.10;99.90
11079;DHT22;5592;49.234;7.268;2023-06-14T02:37:16;8.10;99.90
11079;DHT22;5592;49.234;7.268;2023-06-14T02:39:41;8.10;99.90
11079;DHT22;5592;49.234;7.268;2023-06-14T02:42:07;8.10;99.90
11079;DHT22;5592;49.234;7.268;2023-06-14T02:44:33;8.10;99.90
11079;DHT22;5592;49.234;7.268;2023-06-14T02:46:58;8.10;99.90
11079;DHT22;5592;49.234;7.268;2023-06-14T02:49:26;8.00;99.90
11079;DHT22;5592;49.234;7.268;2023-06-14T02:51:51;8.10;99.90
11079;DHT22;5592;49.234;7.268;2023-06-14T02:54:17;8.10;99.90
11079;DHT22;5592;49.234;7.268;2023-06-14T02:56:43;8.10;99.90
11079;DHT22;5592;49.234;7.268;2023-06-14T02:59:08;8.10;99.90
11079;DHT22;5592;49.234;7.268;2023-06-14T03:01:41;8.00;99.90
11079;DHT22;5592;49.234;7.268;2023-06-14T03:04:08;8.00;99.90
11079;DHT22;5592;49.234;7.268;2023-06-14T03:06:34;7.90;99.90
11079;DHT22;5592;49.234;7.268;2023-06-14T03:09:00;7.90;99.90
11079;DHT22;5592;49.234;7.268;2023-06-14T03:11:27;7.80;99.90
11079;DHT22;5592;49.234;7.268;2023-06-14T03:13:53;7.80;99.90
11079;DHT22;5592;49.234;7.268;2023-06-14T03:16:19;7.80;99.90
11079;DHT22;5592;49.234;7.268;2023-06-14T03:18:45;7.80;99.90
11079;DHT22;5592;49.234;7.268;2023-06-14T03:21:11;7.70;99.90
11079;DHT22;5592;49.234;7.268;2023-06-14T03:23:36;7.70;99.90
11079;DHT22;5592;49.234;7.268;2023-06-14T03:26:02;7.70;99.90
11079;DHT22;5592;49.234;7.268;2023-06-14T03:28:28;7.70;99.90
11079;DHT22;5592;49.234;7.268;2023-06-14T03:30:53;7.70;99.90
11079;DHT22;5592;49.234;7.268;2023-06-14T03:33:19;7.70;99.90
11079;DHT22;5592;49.234;7.268;2023-06-14T03:35:44;7.70;99.90
11079;DHT22;5592;49.234;7.268;2023-06-14T03:38:10;7.80;99.90
11079;DHT22;5592;49.234;7.268;2023-06-14T03:40:36;7.70;99.90
11079;DHT22;5592;49.234;7.268;2023-06-14T03:43:04;7.80;99.90
11079;DHT22;5592;49.234;7.268;2023-06-14T03:45:30;7.80;99.90
11079;DHT22;5592;49.234;7.268;2023-06-14T03:47:56;7.90;99.90
11079;DHT22;5592;49.234;7.268;2023-06-14T03:50:22;8.00;99.90
11079;DHT22;5592;49.234;7.268;2023-06-14T03:52:48;8.00;99.90
11079;DHT22;5592;49.234;7.268;2023-06-14T03:55:14;8.10;99.90
11079;DHT22;5592;49.234;7.268;2023-06-14T03:57:41;8.10;99.90
11079;DHT22;5592;49.234;7.268;2023-06-14T04:00:08;8.20;99.90
11079;DHT22;5592;49.234;7.268;2023-06-14T04:02:35;8.30;99.90
11079;DHT22;5592;49.234;7.268;2023-06-14T04:05:02;8.30;99.90
11079;DHT22;5592;49.234;7.268;2023-06-14T04:07:28;8.40;99.90
11079;DHT22;5592;49.234;7.268;2023-06-14T04:09:54;8.50;99.90
11079;DHT22;5592;49.234;7.268;2023-06-14T04:12:23;8.60;99.90
11079;DHT22;5592;49.234;7.268;2023-06-14T04:14:48;8.70;99.90
11079;DHT22;5592;49.234;7.268;2023-06-14T04:17:14;8.80;99.90
11079;DHT22;5592;49.234;7.268;2023-06-14T04:19:40;8.90;99.90
11079;DHT22;5592;49.234;7.268;2023-06-14T04:22:05;9.00;99.90
11079;DHT22;5592;49.234;7.268;2023-06-14T04:24:31;9.10;99.90
11079;DHT22;5592;49.234;7.268;2023-06-14T04:27:00;9.20;99.90
11079;DHT22;5592;49.234;7.268;2023-06-14T04:29:29;9.40;99.90
11079;DHT22;5592;49.234;7.268;2023-06-14T04:31:55;9.50;99.90
11079;DHT22;5592;49.234;7.268;2023-06-14T04:34:25;9.70;99.90
11079;DHT22;5592;49.234;7.268;2023-06-14T04:36:57;9.80;99.90
11079;DHT22;5592;49.234;7.268;2023-06-14T04:39:25;10.00;99.90
11079;DHT22;5592;49.234;7.268;2023-06-14T04:41:51;10.20;99.90
11079;DHT22;5592;49.234;7.268;2023-06-14T04:44:18;10.40;99.90
11079;DHT22;5592;49.234;7.268;2023-06-14T04:46:45;10.70;99.90
11079;DHT22;5592;49.234;7.268;2023-06-14T04:49:14;11.10;99.90
11079;DHT22;5592;49.234;7.268;2023-06-14T04:51:46;11.40;99.90
11079;DHT22;5592;49.234;7.268;2023-06-14T04:54:16;12.00;99.90
11079;DHT22;5592;49.234;7.268;2023-06-14T04:56:44;12.80;99.90
11079;DHT22;5592;49.234;7.268;2023-06-14T04:59:10;13.80;99.90
11079;DHT22;5592;49.234;7.268;2023-06-14T05:01:40;15.20;99.90
11079;DHT22;5592;49.234;7.268;2023-06-14T05:04:09;16.60;99.90
11079;DHT22;5592;49.234;7.268;2023-06-14T05:06:35;18.10;99.90
11079;DHT22;5592;49.234;7.268;2023-06-14T05:09:01;19.60;99.90
11079;DHT22;5592;49.234;7.268;2023-06-14T05:11:27;20.70;99.90
11079;DHT22;5592;49.234;7.268;2023-06-14T05:13:53;21.80;99.90
11079;DHT22;5592;49.234;7.268;2023-06-14T05:16:18;22.70;99.90
11079;DHT22;5592;49.234;7.268;2023-06-14T05:18:45;23.70;99.90
11079;DHT22;5592;49.234;7.268;2023-06-14T05:21:13;24.70;99.90
11079;DHT22;5592;49.234;7.268;2023-06-14T05:23:43;25.20;99.90
11079;DHT22;5592;49.234;7.268;2023-06-14T05:26:10;25.60;99.90
11079;DHT22;5592;49.234;7.268;2023-06-14T05:28:35;25.80;99.90
11079;DHT22;5592;49.234;7.268;2023-06-14T05:31:01;26.20;99.40
11079;DHT22;5592;49.234;7.268;2023-06-14T05:33:27;26.80;98.30
11079;DHT22;5592;49.234;7.268;2023-06-14T05:35:52;27.40;97.10
11079;DHT22;5592;49.234;7.268;2023-06-14T05:38:19;28.00;95.00
11079;DHT22;5592;49.234;7.268;2023-06-14T05:40:45;28.70;93.50
11079;DHT22;5592;49.234;7.268;2023-06-14T05:43:11;29.10;91.30
11079;DHT22;5592;49.234;7.268;2023-06-14T05:45:36;29.70;84.90
11079;DHT22;5592;49.234;7.268;2023-06-14T05:48:02;30.20;80.40
11079;DHT22;5592;49.234;7.268;2023-06-14T05:50:27;30.50;75.90
11079;DHT22;5592;49.234;7.268;2023-06-14T05:52:53;31.10;71.80
11079;DHT22;5592;49.234;7.268;2023-06-14T05:55:19;31.00;74.50
11079;DHT22;5592;49.234;7.268;2023-06-14T05:57:45;30.90;72.60
11079;DHT22;5592;49.234;7.268;2023-06-14T06:00:11;30.90;68.30
11079;DHT22;5592;49.234;7.268;2023-06-14T06:02:40;30.60;69.80
11079;DHT22;5592;49.234;7.268;2023-06-14T06:05:08;30.70;69.60
11079;DHT22;5592;49.234;7.268;2023-06-14T06:07:37;31.00;67.90
11079;DHT22;5592;49.234;7.268;2023-06-14T06:10:03;31.40;67.00
11079;DHT22;5592;49.234;7.268;2023-06-14T06:12:30;31.60;64.10
11079;DHT22;5592;49.234;7.268;2023-06-14T06:14:56;32.00;64.60
11079;DHT22;5592;49.234;7.268;2023-06-14T06:17:21;32.60;62.50
11079;DHT22;5592;49.234;7.268;2023-06-14T06:19:47;33.20;61.30
11079;DHT22;5592;49.234;7.268;2023-06-14T06:22:14;33.10;59.10
11079;DHT22;5592;49.234;7.268;2023-06-14T06:24:40;33.30;60.60
11079;DHT22;5592;49.234;7.268;2023-06-14T06:27:11;33.90;61.10
11079;DHT22;5592;49.234;7.268;2023-06-14T06:29:38;34.20;58.50
11079;DHT22;5592;49.234;7.268;2023-06-14T06:32:04;34.40;57.60
11079;DHT22;5592;49.234;7.268;2023-06-14T06:34:32;34.90;57.50
11079;DHT22;5592;49.234;7.268;2023-06-14T06:36:58;34.70;57.30
11079;DHT22;5592;49.234;7.268;2023-06-14T06:39:24;34.80;57.40
11079;DHT22;5592;49.234;7.268;2023-06-14T06:41:50;34.60;56.60
11079;DHT22;5592;49.234;7.268;2023-06-14T06:44:16;34.90;55.90
11079;DHT22;5592;49.234;7.268;2023-06-14T06:46:43;34.90;55.10
11079;DHT22;5592;49.234;7.268;2023-06-14T06:49:09;35.00;54.80
11079;DHT22;5592;49.234;7.268;2023-06-14T06:51:40;34.80;54.00
11079;DHT22;5592;49.234;7.268;2023-06-14T06:54:07;34.90;55.00
11079;DHT22;5592;49.234;7.268;2023-06-14T06:56:33;35.00;54.60
11079;DHT22;5592;49.234;7.268;2023-06-14T06:58:59;34.60;54.60
11079;DHT22;5592;49.234;7.268;2023-06-14T07:01:25;35.20;53.40
11079;DHT22;5592;49.234;7.268;2023-06-14T07:03:51;35.50;53.50
11079;DHT22;5592;49.234;7.268;2023-06-14T07:06:17;35.30;54.40
11079;DHT22;5592;49.234;7.268;2023-06-14T07:08:44;35.90;52.40
11079;DHT22;5592;49.234;7.268;2023-06-14T07:11:10;36.60;53.10
11079;DHT22;5592;49.234;7.268;2023-06-14T07:13:35;36.40;52.30
11079;DHT22;5592;49.234;7.268;2023-06-14T07:16:04;36.30;52.40
11079;DHT22;5592;49.234;7.268;2023-06-14T07:18:29;36.70;52.40
11079;DHT22;5592;49.234;7.268;2023-06-14T07:20:56;36.60;51.60
11079;DHT22;5592;49.234;7.268;2023-06-14T07:23:25;36.80;52.70
11079;DHT22;5592;49.234;7.268;2023-06-14T07:25:52;36.50;49.60
11079;DHT22;5592;49.234;7.268;2023-06-14T07:28:17;36.70;50.70
11079;DHT22;5592;49.234;7.268;2023-06-14T07:30:44;37.10;49.90
11079;DHT22;5592;49.234;7.268;2023-06-14T07:33:09;37.20;50.00
11079;DHT22;5592;49.234;7.268;2023-06-14T07:35:39;37.20;51.40
11079;DHT22;5592;49.234;7.268;2023-06-14T07:38:05;37.10;50.10
11079;DHT22;5592;49.234;7.268;2023-06-14T07:40:31;37.00;48.90
11079;DHT22;5592;49.234;7.268;2023-06-14T07:42:57;37.00;49.60
11079;DHT22;5592;49.234;7.268;2023-06-14T07:45:22;37.10;50.00
11079;DHT22;5592;49.234;7.268;2023-06-14T07:47:48;37.10;48.90
11079;DHT22;5592;49.234;7.268;2023-06-14T07:50:18;36.80;49.60
11079;DHT22;5592;49.234;7.268;2023-06-14T07:52:46;37.30;47.60
11079;DHT22;5592;49.234;7.268;2023-06-14T07:55:14;37.60;47.50
11079;DHT22;5592;49.234;7.268;2023-06-14T07:57:42;37.10;48.40
11079;DHT22;5592;49.234;7.268;2023-06-14T08:00:10;36.40;49.70
11079;DHT22;5592;49.234;7.268;2023-06-14T08:02:41;36.80;49.10
11079;DHT22;5592;49.234;7.268;2023-06-14T08:05:07;37.20;47.20
11079;DHT22;5592;49.234;7.268;2023-06-14T08:07:34;37.50;47.50
11079;DHT22;5592;49.234;7.268;2023-06-14T08:09:59;37.80;45.70
11079;DHT22;5592;49.234;7.268;2023-06-14T08:12:26;37.60;45.70
11079;DHT22;5592;49.234;7.268;2023-06-14T08:14:51;37.20;47.70
11079;DHT22;5592;49.234;7.268;2023-06-14T08:17:17;37.30;46.90
11079;DHT22;5592;49.234;7.268;2023-06-14T08:19:42;37.60;47.00
11079;DHT22;5592;49.234;7.268;2023-06-14T08:22:08;37.40;48.00
11079;DHT22;5592;49.234;7.268;2023-06-14T08:24:37;37.70;46.50
11079;DHT22;5592;49.234;7.268;2023-06-14T08:27:02;37.40;48.30
11079;DHT22;5592;49.234;7.268;2023-06-14T08:29:28;36.60;48.90
11079;DHT22;5592;49.234;7.268;2023-06-14T08:31:55;37.10;49.40
11079;DHT22;5592;49.234;7.268;2023-06-14T08:34:22;37.70;48.00
11079;DHT22;5592;49.234;7.268;2023-06-14T08:36:50;37.60;45.90
11079;DHT22;5592;49.234;7.268;2023-06-14T08:39:16;37.80;47.40
11079;DHT22;5592;49.234;7.268;2023-06-14T08:41:45;37.70;47.20
11079;DHT22;5592;49.234;7.268;2023-06-14T08:44:16;38.40;46.30
11079;DHT22;5592;49.234;7.268;2023-06-14T08:46:42;39.00;46.40
11079;DHT22;5592;49.234;7.268;2023-06-14T08:49:11;39.10;44.20
11079;DHT22;5592;49.234;7.268;2023-06-14T08:51:38;38.70;45.60
11079;DHT22;5592;49.234;7.268;2023-06-14T08:54:07;38.20;45.70
11079;DHT22;5592;49.234;7.268;2023-06-14T08:56:33;38.70;45.40
11079;DHT22;5592;49.234;7.268;2023-06-14T08:59:02;39.00;44.00
11079;DHT22;5592;49.234;7.268;2023-06-14T09:01:33;38.90;43.70
11079;DHT22;5592;49.234;7.268;2023-06-14T09:03:59;38.80;44.50
11079;DHT22;5592;49.234;7.268;2023-06-14T09:06:25;38.90;45.40
11079;DHT22;5592;49.234;7.268;2023-06-14T09:08:54;38.70;44.90
11079;DHT22;5592;49.234;7.268;2023-06-14T09:11:22;38.00;46.10
11079;DHT22;5592;49.234;7.268;2023-06-14T09:13:49;37.70;44.30
11079;DHT22;5592;49.234;7.268;2023-06-14T09:16:15;38.00;45.30
11079;DHT22;5592;49.234;7.268;2023-06-14T09:18:45;38.40;43.80
11079;DHT22;5592;49.234;7.268;2023-06-14T09:21:16;38.60;44.30
11079;DHT22;5592;49.234;7.268;2023-06-14T09:23:46;38.50;45.10
11079;DHT22;5592;49.234;7.268;2023-06-14T09:26:17;38.60;44.20
11079;DHT22;5592;49.234;7.268;2023-06-14T09:28:46;38.60;44.10
11079;DHT22;5592;49.234;7.268;2023-06-14T09:31:16;39.30;41.40
11079;DHT22;5592;49.234;7.268;2023-06-14T09:33:46;39.20;42.60
11079;DHT22;5592;49.234;7.268;2023-06-14T09:36:24;38.80;44.20
11079;DHT22;5592;49.234;7.268;2023-06-14T09:39:01;38.50;41.50
11079;DHT22;5592;49.234;7.268;2023-06-14T09:41:36;38.30;42.90
11079;DHT22;5592;49.234;7.268;2023-06-14T09:44:03;38.00;43.30
11079;DHT22;5592;49.234;7.268;2023-06-14T09:46:30;37.30;45.10
11079;DHT22;5592;49.234;7.268;2023-06-14T09:48:59;37.30;48.20
11079;DHT22;5592;49.234;7.268;2023-06-14T09:51:26;37.90;44.20
11079;DHT22;5592;49.234;7.268;2023-06-14T09:53:53;37.20;43.40
11079;DHT22;5592;49.234;7.268;2023-06-14T09:56:30;36.90;44.40
11079;DHT22;5592;49.234;7.268;2023-06-14T09:58:57;37.40;44.10
11079;DHT22;5592;49.234;7.268;2023-06-14T10:01:25;37.10;42.50
11079;DHT22;5592;49.234;7.268;2023-06-14T10:03:55;36.80;44.40
11079;DHT22;5592;49.234;7.268;2023-06-14T10:06:23;36.50;42.70
11079;DHT22;5592;49.234;7.268;2023-06-14T10:08:52;36.20;44.70
11079;DHT22;5592;49.234;7.268;2023-06-14T10:11:20;35.90;45.80
11079;DHT22;5592;49.234;7.268;2023-06-14T10:13:46;36.20;44.60
11079;DHT22;5592;49.234;7.268;2023-06-14T10:16:17;36.30;45.80
11079;DHT22;5592;49.234;7.268;2023-06-14T10:18:51;36.50;46.00
11079;DHT22;5592;49.234;7.268;2023-06-14T10:21:46;36.50;45.80
11079;DHT22;5592;49.234;7.268;2023-06-14T10:24:16;36.10;43.60
11079;DHT22;5592;49.234;7.268;2023-06-14T10:26:57;36.00;44.50
11079;DHT22;5592;49.234;7.268;2023-06-14T10:29:23;35.80;45.90
11079;DHT22;5592;49.234;7.268;2023-06-14T10:31:53;35.70;45.30
11079;DHT22;5592;49.234;7.268;2023-06-14T10:34:31;35.50;45.70
11079;DHT22;5592;49.234;7.268;2023-06-14T10:37:01;35.20;42.60
11079;DHT22;5592;49.234;7.268;2023-06-14T10:39:28;34.90;43.00
11079;DHT22;5592;49.234;7.268;2023-06-14T10:41:56;34.60;44.20
11079;DHT22;5592;49.234;7.268;2023-06-14T10:47:09;34.30;45.10
11079;DHT22;5592;49.234;7.268;2023-06-14T10:49:44;34.40;45.20
11079;DHT22;5592;49.234;7.268;2023-06-14T10:52:15;34.30;45.20
11079;DHT22;5592;49.234;7.268;2023-06-14T10:57:36;33.80;43.80
11079;DHT22;5592;49.234;7.268;2023-06-14T11:00:03;33.90;45.60
11079;DHT22;5592;49.234;7.268;2023-06-14T11:05:29;33.40;45.00
11079;DHT22;5592;49.234;7.268;2023-06-14T11:10:44;32.40;43.20
11079;DHT22;5592;49.234;7.268;2023-06-14T11:13:16;32.20;43.00
11079;DHT22;5592;49.234;7.268;2023-06-14T11:15:46;31.90;45.30
11079;DHT22;5592;49.234;7.268;2023-06-14T11:18:15;31.70;45.70
11079;DHT22;5592;49.234;7.268;2023-06-14T11:20:42;31.40;43.80
11079;DHT22;5592;49.234;7.268;2023-06-14T11:23:10;31.10;46.60
11079;DHT22;5592;49.234;7.268;2023-06-14T11:25:36;30.80;45.00
11079;DHT22;5592;49.234;7.268;2023-06-14T11:28:01;30.30;48.30
11079;DHT22;5592;49.234;7.268;2023-06-14T11:30:27;30.30;49.50
11079;DHT22;5592;49.234;7.268;2023-06-14T11:32:54;29.90;48.50
11079;DHT22;5592;49.234;7.268;2023-06-14T11:35:24;29.30;49.50
11079;DHT22;5592;49.234;7.268;2023-06-14T11:37:56;28.70;50.20
11079;DHT22;5592;49.234;7.268;2023-06-14T11:40:25;28.70;50.50
11079;DHT22;5592;49.234;7.268;2023-06-14T11:42:58;28.40;48.90
11079;DHT22;5592;49.234;7.268;2023-06-14T11:45:25;28.60;48.60
11079;DHT22;5592;49.234;7.268;2023-06-14T11:47:50;28.90;51.20
11079;DHT22;5592;49.234;7.268;2023-06-14T11:50:16;29.00;49.00
11079;DHT22;5592;49.234;7.268;2023-06-14T11:52:45;29.10;50.50
11079;DHT22;5592;49.234;7.268;2023-06-14T11:55:17;29.20;49.50
11079;DHT22;5592;49.234;7.268;2023-06-14T11:57:43;29.10;50.00
11079;DHT22;5592;49.234;7.268;2023-06-14T12:00:09;28.60;51.40
11079;DHT22;5592;49.234;7.268;2023-06-14T12:02:38;28.50;50.10
11079;DHT22;5592;49.234;7.268;2023-06-14T12:05:06;28.60;49.00
11079;DHT22;5592;49.234;7.268;2023-06-14T12:07:38;28.50;49.60
11079;DHT22;5592;49.234;7.268;2023-06-14T12:10:06;28.40;50.30
11079;DHT22;5592;49.234;7.268;2023-06-14T12:12:38;28.30;50.90
11079;DHT22;5592;49.234;7.268;2023-06-14T12:15:05;28.20;48.90
11079;DHT22;5592;49.234;7.268;2023-06-14T12:17:38;28.20;49.70
11079;DHT22;5592;49.234;7.268;2023-06-14T12:20:09;28.30;49.90
11079;DHT22;5592;49.234;7.268;2023-06-14T12:22:52;28.30;52.40
11079;DHT22;5592;49.234;7.268;2023-06-14T12:25:27;28.40;51.80
11079;DHT22;5592;49.234;7.268;2023-06-14T12:27:54;28.30;51.80
11079;DHT22;5592;49.234;7.268;2023-06-14T12:30:20;28.00;49.10
11079;DHT22;5592;49.234;7.268;2023-06-14T12:32:46;27.50;49.10
11079;DHT22;5592;49.234;7.268;2023-06-14T12:35:12;27.60;50.30
11079;DHT22;5592;49.234;7.268;2023-06-14T12:37:37;27.70;49.50
11079;DHT22;5592;49.234;7.268;2023-06-14T12:40:03;27.60;52.10
11079;DHT22;5592;49.234;7.268;2023-06-14T12:42:31;27.80;50.60
11079;DHT22;5592;49.234;7.268;2023-06-14T12:44:56;27.90;51.10
11079;DHT22;5592;49.234;7.268;2023-06-14T12:47:23;27.80;51.40
11079;DHT22;5592;49.234;7.268;2023-06-14T12:49:49;27.50;49.70
11079;DHT22;5592;49.234;7.268;2023-06-14T12:52:15;27.40;50.00
11079;DHT22;5592;49.234;7.268;2023-06-14T12:54:41;27.50;51.70
11079;DHT22;5592;49.234;7.268;2023-06-14T12:57:07;27.20;49.90
11079;DHT22;5592;49.234;7.268;2023-06-14T12:59:33;27.20;51.20
11079;DHT22;5592;49.234;7.268;2023-06-14T13:02:16;26.90;52.10
11079;DHT22;5592;49.234;7.268;2023-06-14T13:04:42;26.90;51.40
11079;DHT22;5592;49.234;7.268;2023-06-14T13:07:07;26.90;52.40
11079;DHT22;5592;49.234;7.268;2023-06-14T13:09:33;27.00;53.50
11079;DHT22;5592;49.234;7.268;2023-06-14T13:11:59;27.00;51.90
11079;DHT22;5592;49.234;7.268;2023-06-14T13:14:24;27.00;51.00
11079;DHT22;5592;49.234;7.268;2023-06-14T13:16:50;26.90;51.10
11079;DHT22;5592;49.234;7.268;2023-06-14T13:19:16;26.70;49.90
11079;DHT22;5592;49.234;7.268;2023-06-14T13:21:41;26.50;50.10
11079;DHT22;5592;49.234;7.268;2023-06-14T13:24:07;26.60;49.40
11079;DHT22;5592;49.234;7.268;2023-06-14T13:26:33;26.60;50.20
11079;DHT22;5592;49.234;7.268;2023-06-14T13:28:59;26.50;50.00
11079;DHT22;5592;49.234;7.268;2023-06-14T13:31:25;26.40;51.70
11079;DHT22;5592;49.234;7.268;2023-06-14T13:33:51;26.50;54.60
11079;DHT22;5592;49.234;7.268;2023-06-14T13:36:17;26.60;50.30
11079;DHT22;5592;49.234;7.268;2023-06-14T13:38:44;26.50;52.20
11079;DHT22;5592;49.234;7.268;2023-06-14T13:41:15;26.50;52.70
11079;DHT22;5592;49.234;7.268;2023-06-14T13:43:41;26.30;50.00
11079;DHT22;5592;49.234;7.268;2023-06-14T13:46:06;26.20;51.90
11079;DHT22;5592;49.234;7.268;2023-06-14T13:48:32;26.30;54.20
11079;DHT22;5592;49.234;7.268;2023-06-14T13:51:00;26.30;50.80
11079;DHT22;5592;49.234;7.268;2023-06-14T13:53:25;26.10;50.30
11079;DHT22;5592;49.234;7.268;2023-06-14T13:55:51;25.50;50.60
11079;DHT22;5592;49.234;7.268;2023-06-14T13:58:20;25.50;55.20
11079;DHT22;5592;49.234;7.268;2023-06-14T14:00:45;25.50;52.10
11079;DHT22;5592;49.234;7.268;2023-06-14T14:03:11;25.40;52.60
11079;DHT22;5592;49.234;7.268;2023-06-14T14:05:37;25.50;51.00
11079;DHT22;5592;49.234;7.268;2023-06-14T14:08:03;25.60;52.00
11079;DHT22;5592;49.234;7.268;2023-06-14T14:10:29;25.70;53.50
11079;DHT22;5592;49.234;7.268;2023-06-14T14:12:55;25.60;53.40
11079;DHT22;5592;49.234;7.268;2023-06-14T14:15:22;25.70;52.70
11079;DHT22;5592;49.234;7.268;2023-06-14T14:17:47;25.50;51.70
11079;DHT22;5592;49.234;7.268;2023-06-14T14:20:13;25.40;52.30
11079;DHT22;5592;49.234;7.268;2023-06-14T14:22:41;25.40;52.90
11079;DHT22;5592;49.234;7.268;2023-06-14T14:25:08;25.50;53.80
11079;DHT22;5592;49.234;7.268;2023-06-14T14:27:34;25.60;55.60
11079;DHT22;5592;49.234;7.268;2023-06-14T14:30:00;25.60;52.80
11079;DHT22;5592;49.234;7.268;2023-06-14T14:32:26;25.50;54.30
11079;DHT22;5592;49.234;7.268;2023-06-14T14:34:51;25.70;53.50
11079;DHT22;5592;49.234;7.268;2023-06-14T14:37:17;25.70;52.70
11079;DHT22;5592;49.234;7.268;2023-06-14T14:39:44;25.60;52.70
11079;DHT22;5592;49.234;7.268;2023-06-14T14:42:09;25.30;51.70
11079;DHT22;5592;49.234;7.268;2023-06-14T14:44:38;25.20;52.90
11079;DHT22;5592;49.234;7.268;2023-06-14T14:47:03;25.20;52.60
11079;DHT22;5592;49.234;7.268;2023-06-14T14:49:30;25.20;52.60
11079;DHT22;5592;49.234;7.268;2023-06-14T14:51:55;25.20;52.60
11079;DHT22;5592;49.234;7.268;2023-06-14T14:54:22;25.20;52.00
11079;DHT22;5592;49.234;7.268;2023-06-14T14:56:48;25.10;51.10
11079;DHT22;5592;49.234;7.268;2023-06-14T14:59:14;25.00;52.60
11079;DHT22;5592;49.234;7.268;2023-06-14T15:01:40;25.10;53.40
11079;DHT22;5592;49.234;7.268;2023-06-14T15:04:06;25.20;53.40
11079;DHT22;5592;49.234;7.268;2023-06-14T15:06:31;25.30;53.20
11079;DHT22;5592;49.234;7.268;2023-06-14T15:08:57;25.20;53.00
11079;DHT22;5592;49.234;7.268;2023-06-14T15:11:23;25.20;52.70
11079;DHT22;5592;49.234;7.268;2023-06-14T15:13:48;25.10;52.70
11079;DHT22;5592;49.234;7.268;2023-06-14T15:16:17;25.00;53.60
11079;DHT22;5592;49.234;7.268;2023-06-14T15:18:43;24.80;53.40
11079;DHT22;5592;49.234;7.268;2023-06-14T15:21:12;24.90;54.80
11079;DHT22;5592;49.234;7.268;2023-06-14T15:23:38;25.00;54.40
11079;DHT22;5592;49.234;7.268;2023-06-14T15:26:04;25.10;54.30
11079;DHT22;5592;49.234;7.268;2023-06-14T15:28:29;25.00;55.90
11079;DHT22;5592;49.234;7.268;2023-06-14T15:30:58;25.00;54.00
11079;DHT22;5592;49.234;7.268;2023-06-14T15:33:25;24.90;53.60
11079;DHT22;5592;49.234;7.268;2023-06-14T15:35:50;24.80;54.60
11079;DHT22;5592;49.234;7.268;2023-06-14T15:38:16;24.70;52.40
11079;DHT22;5592;49.234;7.268;2023-06-14T15:40:41;24.80;54.80
11079;DHT22;5592;49.234;7.268;2023-06-14T15:43:07;24.80;55.30
11079;DHT22;5592;49.234;7.268;2023-06-14T15:45:33;24.80;54.10
11079;DHT22;5592;49.234;7.268;2023-06-14T15:48:02;24.80;54.30
11079;DHT22;5592;49.234;7.268;2023-06-14T15:50:28;24.70;53.80
11079;DHT22;5592;49.234;7.268;2023-06-14T15:52:53;24.60;53.50
11079;DHT22;5592;49.234;7.268;2023-06-14T15:55:19;24.70;54.70
11079;DHT22;5592;49.234;7.268;2023-06-14T15:57:47;24.80;53.40
11079;DHT22;5592;49.234;7.268;2023-06-14T16:00:14;24.60;54.60
11079;DHT22;5592;49.234;7.268;2023-06-14T16:02:40;24.60;52.70
11079;DHT22;5592;49.234;7.268;2023-06-14T16:05:06;24.50;53.50